sensor_id;sensor_type;location;lat;lon;timestamp;P1;durP1;ratioP1;P2;durP2;ratioP2
15261;SDS011;7733;51.554;13.590;2023-04-06T00:02:07;3.63;;;3.30;;
15261;SDS011;7733;51.554;13.590;2023-04-06T00:04:33;3.20;;;2.93;;
15261;SDS011;7733;51.554;13.590;2023-04-06T00:06:59;3.17;;;2.97;;
15261;SDS011;7733;51.554;13.590;2023-04-06T00:09:25;3.30;;;3.03;;
15261;SDS011;7733;51.554;13.590;2023-04-06T00:11:50;3.40;;;3.20;;
15261;SDS011;7733;51.554;13.590;2023-04-06T00:14:16;3.60;;;3.30;;
15261;SDS011;7733;51.554;13.590;2023-04-06T00:16:42;5.60;;;3.50;;
15261;SDS011;7733;51.554;13.590;2023-04-06T00:19:08;3.70;;;3.40;;
15261;SDS011;7733;51.554;13.590;2023-04-06T00:21:34;5.20;;;3.40;;
15261;SDS011;7733;51.554;13.590;2023-04-06T00:23:59;3.80;;;3.47;;
15261;SDS011;7733;51.554;13.590;2023-04-06T00:26:25;3.67;;;3.40;;
15261;SDS011;7733;51.554;13.590;2023-04-06T00:28:51;4.57;;;4.17;;
15261;SDS011;7733;51.554;13.590;2023-04-06T00:31:17;4.37;;;4.07;;
15261;SDS011;7733;51.554;13.590;2023-04-06T00:33:43;3.60;;;3.40;;
15261;SDS011;7733;51.554;13.590;2023-04-06T00:36:09;3.20;;;3.00;;
15261;SDS011;7733;51.554;13.590;2023-04-06T00:38:35;3.03;;;2.83;;
15261;SDS011;7733;51.554;13.590;2023-04-06T00:41:01;3.90;;;3.63;;
15261;SDS011;7733;51.554;13.590;2023-04-06T00:43:28;3.87;;;3.60;;
15261;SDS011;7733;51.554;13.590;2023-04-06T00:45:54;3.53;;;3.27;;
15261;SDS011;7733;51.554;13.590;2023-04-06T00:48:20;4.23;;;3.20;;
15261;SDS011;7733;51.554;13.590;2023-04-06T00:50:46;3.60;;;3.40;;
15261;SDS011;7733;51.554;13.590;2023-04-06T00:53:12;3.57;;;3.30;;
15261;SDS011;7733;51.554;13.590;2023-04-06T00:55:38;3.30;;;3.10;;
15261;SDS011;7733;51.554;13.590;2023-04-06T00:58:04;3.73;;;3.40;;
15261;SDS011;7733;51.554;13.590;2023-04-06T01:00:31;3.67;;;3.47;;
15261;SDS011;7733;51.554;13.590;2023-04-06T01:02:57;3.47;;;3.17;;
15261;SDS011;7733;51.554;13.590;2023-04-06T01:05:23;3.20;;;2.90;;
15261;SDS011;7733;51.554;13.590;2023-04-06T01:07:49;4.47;;;3.17;;
15261;SDS011;7733;51.554;13.590;2023-04-06T01:10:27;3.97;;;3.67;;
15261;SDS011;7733;51.554;13.590;2023-04-06T01:12:53;4.07;;;3.50;;
15261;SDS011;7733;51.554;13.590;2023-04-06T01:15:20;3.77;;;3.47;;
15261;SDS011;7733;51.554;13.590;2023-04-06T01:17:46;3.87;;;3.57;;
15261;SDS011;7733;51.554;13.590;2023-04-06T01:20:12;3.60;;;3.30;;
15261;SDS011;7733;51.554;13.590;2023-04-06T01:22:39;3.60;;;3.40;;
15261;SDS011;7733;51.554;13.590;2023-04-06T01:25:05;4.50;;;4.00;;
15261;SDS011;7733;51.554;13.590;2023-04-06T01:27:31;4.43;;;4.03;;
15261;SDS011;7733;51.554;13.590;2023-04-06T01:29:57;4.27;;;3.73;;
15261;SDS011;7733;51.554;13.590;2023-04-06T01:32:24;3.80;;;3.50;;
15261;SDS011;7733;51.554;13.590;2023-04-06T01:34:50;5.77;;;4.40;;
15261;SDS011;7733;51.554;13.590;2023-04-06T01:37:16;4.10;;;3.70;;
15261;SDS011;7733;51.554;13.590;2023-04-06T01:39:42;4.00;;;3.70;;
15261;SDS011;7733;51.554;13.590;2023-04-06T01:42:09;3.73;;;3.43;;
15261;SDS011;7733;51.554;13.590;2023-04-06T01:44:35;4.37;;;3.87;;
15261;SDS011;7733;51.554;13.590;2023-04-06T01:47:02;4.77;;;4.13;;
15261;SDS011;7733;51.554;13.590;2023-04-06T01:49:27;4.00;;;3.70;;
15261;SDS011;7733;51.554;13.590;2023-04-06T01:51:53;3.77;;;3.47;;
15261;SDS011;7733;51.554;13.590;2023-04-06T01:54:19;4.07;;;3.80;;
15261;SDS011;7733;51.554;13.590;2023-04-06T01:56:45;3.70;;;3.50;;
15261;SDS011;7733;51.554;13.590;2023-04-06T01:59:11;4.40;;;4.10;;
15261;SDS011;7733;51.554;13.590;2023-04-06T02:01:36;3.80;;;3.50;;
15261;SDS011;7733;51.554;13.590;2023-04-06T02:04:02;4.33;;;3.80;;
15261;SDS011;7733;51.554;13.590;2023-04-06T02:06:28;6.10;;;4.00;;
15261;SDS011;7733;51.554;13.590;2023-04-06T02:08:54;3.73;;;3.40;;
15261;SDS011;7733;51.554;13.590;2023-04-06T02:11:19;4.10;;;3.80;;
15261;SDS011;7733;51.554;13.590;2023-04-06T02:13:45;4.07;;;3.77;;
15261;SDS011;7733;51.554;13.590;2023-04-06T02:16:11;3.97;;;3.60;;
15261;SDS011;7733;51.554;13.590;2023-04-06T02:18:37;4.07;;;3.70;;
15261;SDS011;7733;51.554;13.590;2023-04-06T02:21:02;4.00;;;3.70;;
15261;SDS011;7733;51.554;13.590;2023-04-06T02:23:28;4.27;;;3.90;;
15261;SDS011;7733;51.554;13.590;2023-04-06T02:25:54;4.60;;;4.20;;
15261;SDS011;7733;51.554;13.590;2023-04-06T02:28:20;4.90;;;4.50;;
15261;SDS011;7733;51.554;13.590;2023-04-06T02:30:45;5.20;;;4.63;;
15261;SDS011;7733;51.554;13.590;2023-04-06T02:33:11;5.20;;;4.70;;
15261;SDS011;7733;51.554;13.590;2023-04-06T02:35:37;4.67;;;4.30;;
15261;SDS011;7733;51.554;13.590;2023-04-06T02:38:03;4.23;;;3.83;;
15261;SDS011;7733;51.554;13.590;2023-04-06T02:40:28;4.33;;;3.90;;
15261;SDS011;7733;51.554;13.590;2023-04-06T02:42:54;4.10;;;3.77;;
15261;SDS011;7733;51.554;13.590;2023-04-06T02:45:20;5.00;;;3.70;;
15261;SDS011;7733;51.554;13.590;2023-04-06T02:47:46;4.27;;;3.87;;
15261;SDS011;7733;51.554;13.590;2023-04-06T02:50:11;5.00;;;4.70;;
15261;SDS011;7733;51.554;13.590;2023-04-06T02:52:37;4.80;;;4.40;;
15261;SDS011;7733;51.554;13.590;2023-04-06T02:55:03;6.13;;;5.70;;
15261;SDS011;7733;51.554;13.590;2023-04-06T02:57:31;14.13;;;12.17;;
15261;SDS011;7733;51.554;13.590;2023-04-06T02:59:57;8.60;;;7.93;;
15261;SDS011;7733;51.554;13.590;2023-04-06T03:02:23;7.43;;;6.93;;
15261;SDS011;7733;51.554;13.590;2023-04-06T03:04:48;7.60;;;6.93;;
15261;SDS011;7733;51.554;13.590;2023-04-06T03:07:14;7.60;;;7.10;;
15261;SDS011;7733;51.554;13.590;2023-04-06T03:09:40;7.23;;;5.47;;
15261;SDS011;7733;51.554;13.590;2023-04-06T03:12:06;6.63;;;5.50;;
15261;SDS011;7733;51.554;13.590;2023-04-06T03:14:32;6.10;;;5.50;;
15261;SDS011;7733;51.554;13.590;2023-04-06T03:16:57;5.67;;;4.80;;
15261;SDS011;7733;51.554;13.590;2023-04-06T03:19:23;5.57;;;5.03;;
15261;SDS011;7733;51.554;13.590;2023-04-06T03:21:49;6.07;;;5.10;;
15261;SDS011;7733;51.554;13.590;2023-04-06T03:24:15;5.30;;;4.90;;
15261;SDS011;7733;51.554;13.590;2023-04-06T03:26:40;5.40;;;4.40;;
15261;SDS011;7733;51.554;13.590;2023-04-06T03:29:07;4.70;;;4.30;;
15261;SDS011;7733;51.554;13.590;2023-04-06T03:31:32;4.83;;;4.43;;
15261;SDS011;7733;51.554;13.590;2023-04-06T03:33:58;4.97;;;4.47;;
15261;SDS011;7733;51.554;13.590;2023-04-06T03:36:24;4.60;;;4.20;;
15261;SDS011;7733;51.554;13.590;2023-04-06T03:38:51;5.83;;;4.97;;
15261;SDS011;7733;51.554;13.590;2023-04-06T03:41:18;6.47;;;4.40;;
15261;SDS011;7733;51.554;13.590;2023-04-06T03:43:44;5.57;;;5.00;;
15261;SDS011;7733;51.554;13.590;2023-04-06T03:46:10;4.47;;;4.17;;
15261;SDS011;7733;51.554;13.590;2023-04-06T03:48:36;4.20;;;3.80;;
15261;SDS011;7733;51.554;13.590;2023-04-06T03:51:02;5.87;;;4.83;;
15261;SDS011;7733;51.554;13.590;2023-04-06T03:53:28;4.43;;;4.13;;
15261;SDS011;7733;51.554;13.590;2023-04-06T03:55:54;4.97;;;4.57;;
15261;SDS011;7733;51.554;13.590;2023-04-06T03:58:20;5.77;;;5.10;;
15261;SDS011;7733;51.554;13.590;2023-04-06T04:00:46;8.53;;;6.10;;
15261;SDS011;7733;51.554;13.590;2023-04-06T04:03:12;6.70;;;6.00;;
15261;SDS011;7733;51.554;13.590;2023-04-06T04:05:37;5.93;;;5.43;;
15261;SDS011;7733;51.554;13.590;2023-04-06T04:08:03;5.90;;;5.40;;
15261;SDS011;7733;51.554;13.590;2023-04-06T04:10:29;5.33;;;4.83;;
15261;SDS011;7733;51.554;13.590;2023-04-06T04:12:55;5.43;;;4.93;;
15261;SDS011;7733;51.554;13.590;2023-04-06T04:15:20;4.90;;;4.50;;
15261;SDS011;7733;51.554;13.590;2023-04-06T04:17:46;5.50;;;5.00;;
15261;SDS011;7733;51.554;13.590;2023-04-06T04:20:14;6.23;;;4.60;;
15261;SDS011;7733;51.554;13.590;2023-04-06T04:22:41;6.40;;;4.60;;
15261;SDS011;7733;51.554;13.590;2023-04-06T04:25:07;6.40;;;5.60;;
15261;SDS011;7733;51.554;13.590;2023-04-06T04:27:34;14.53;;;10.10;;
15261;SDS011;7733;51.554;13.590;2023-04-06T04:30:00;37.43;;;21.33;;
15261;SDS011;7733;51.554;13.590;2023-04-06T04:32:25;48.80;;;26.50;;
15261;SDS011;7733;51.554;13.590;2023-04-06T04:34:52;48.13;;;25.17;;
15261;SDS011;7733;51.554;13.590;2023-04-06T04:37:19;53.93;;;26.13;;
15261;SDS011;7733;51.554;13.590;2023-04-06T04:39:45;44.90;;;20.93;;
15261;SDS011;7733;51.554;13.590;2023-04-06T04:42:11;58.93;;;25.73;;
15261;SDS011;7733;51.554;13.590;2023-04-06T04:44:37;57.23;;;25.13;;
15261;SDS011;7733;51.554;13.590;2023-04-06T04:47:03;113.03;;;41.67;;
15261;SDS011;7733;51.554;13.590;2023-04-06T04:49:28;97.80;;;38.40;;
15261;SDS011;7733;51.554;13.590;2023-04-06T04:51:54;115.87;;;45.70;;
15261;SDS011;7733;51.554;13.590;2023-04-06T04:54:20;101.87;;;39.10;;
15261;SDS011;7733;51.554;13.590;2023-04-06T04:56:46;51.00;;;22.63;;
15261;SDS011;7733;51.554;13.590;2023-04-06T04:59:11;38.70;;;17.87;;
15261;SDS011;7733;51.554;13.590;2023-04-06T05:01:37;28.83;;;12.93;;
15261;SDS011;7733;51.554;13.590;2023-04-06T05:04:03;36.07;;;15.93;;
15261;SDS011;7733;51.554;13.590;2023-04-06T05:06:29;18.07;;;9.47;;
15261;SDS011;7733;51.554;13.590;2023-04-06T05:08:55;10.60;;;7.10;;
15261;SDS011;7733;51.554;13.590;2023-04-06T05:11:21;8.20;;;6.03;;
15261;SDS011;7733;51.554;13.590;2023-04-06T05:13:47;10.63;;;5.60;;
15261;SDS011;7733;51.554;13.590;2023-04-06T05:16:12;5.40;;;4.90;;
15261;SDS011;7733;51.554;13.590;2023-04-06T05:18:38;7.10;;;5.27;;
15261;SDS011;7733;51.554;13.590;2023-04-06T05:21:04;6.30;;;5.07;;
15261;SDS011;7733;51.554;13.590;2023-04-06T05:23:30;5.57;;;4.97;;
15261;SDS011;7733;51.554;13.590;2023-04-06T05:25:56;5.43;;;4.43;;
15261;SDS011;7733;51.554;13.590;2023-04-06T05:28:21;5.57;;;4.70;;
15261;SDS011;7733;51.554;13.590;2023-04-06T05:30:47;4.77;;;4.30;;
15261;SDS011;7733;51.554;13.590;2023-04-06T05:33:13;7.33;;;5.00;;
15261;SDS011;7733;51.554;13.590;2023-04-06T05:35:39;4.27;;;4.07;;
15261;SDS011;7733;51.554;13.590;2023-04-06T05:38:07;5.77;;;4.27;;
15261;SDS011;7733;51.554;13.590;2023-04-06T05:40:35;6.17;;;4.97;;
15261;SDS011;7733;51.554;13.590;2023-04-06T05:43:03;5.17;;;4.77;;
15261;SDS011;7733;51.554;13.590;2023-04-06T05:45:29;7.47;;;6.20;;
15261;SDS011;7733;51.554;13.590;2023-04-06T05:47:55;8.17;;;7.40;;
15261;SDS011;7733;51.554;13.590;2023-04-06T05:50:21;6.63;;;6.13;;
15261;SDS011;7733;51.554;13.590;2023-04-06T05:52:47;7.03;;;5.73;;
15261;SDS011;7733;51.554;13.590;2023-04-06T05:55:13;5.03;;;4.63;;
15261;SDS011;7733;51.554;13.590;2023-04-06T05:57:39;5.53;;;4.47;;
15261;SDS011;7733;51.554;13.590;2023-04-06T06:00:05;5.30;;;4.90;;
15261;SDS011;7733;51.554;13.590;2023-04-06T06:02:35;5.27;;;4.80;;
15261;SDS011;7733;51.554;13.590;2023-04-06T06:05:01;18.90;;;15.47;;
15261;SDS011;7733;51.554;13.590;2023-04-06T06:07:27;13.40;;;10.80;;
15261;SDS011;7733;51.554;13.590;2023-04-06T06:09:52;7.17;;;6.47;;
15261;SDS011;7733;51.554;13.590;2023-04-06T06:12:23;5.40;;;5.00;;
15261;SDS011;7733;51.554;13.590;2023-04-06T06:14:49;7.47;;;5.27;;
15261;SDS011;7733;51.554;13.590;2023-04-06T06:17:14;5.17;;;4.67;;
15261;SDS011;7733;51.554;13.590;2023-04-06T06:19:40;4.70;;;4.33;;
15261;SDS011;7733;51.554;13.590;2023-04-06T06:22:06;5.17;;;4.67;;
15261;SDS011;7733;51.554;13.590;2023-04-06T06:24:32;8.10;;;5.97;;
15261;SDS011;7733;51.554;13.590;2023-04-06T06:26:58;7.07;;;5.60;;
15261;SDS011;7733;51.554;13.590;2023-04-06T06:29:23;6.93;;;5.10;;
15261;SDS011;7733;51.554;13.590;2023-04-06T06:31:49;9.20;;;7.97;;
15261;SDS011;7733;51.554;13.590;2023-04-06T06:34:15;6.30;;;5.70;;
15261;SDS011;7733;51.554;13.590;2023-04-06T06:36:40;6.43;;;5.03;;
15261;SDS011;7733;51.554;13.590;2023-04-06T06:39:06;7.83;;;5.57;;
15261;SDS011;7733;51.554;13.590;2023-04-06T06:41:32;5.97;;;5.50;;
15261;SDS011;7733;51.554;13.590;2023-04-06T06:43:58;5.83;;;5.27;;
15261;SDS011;7733;51.554;13.590;2023-04-06T06:46:23;5.67;;;5.17;;
15261;SDS011;7733;51.554;13.590;2023-04-06T06:48:49;5.63;;;5.13;;
15261;SDS011;7733;51.554;13.590;2023-04-06T06:51:15;5.67;;;5.23;;
15261;SDS011;7733;51.554;13.590;2023-04-06T06:53:41;5.73;;;5.23;;
15261;SDS011;7733;51.554;13.590;2023-04-06T06:56:06;5.27;;;4.80;;
15261;SDS011;7733;51.554;13.590;2023-04-06T06:58:32;5.17;;;4.70;;
15261;SDS011;7733;51.554;13.590;2023-04-06T07:00:58;5.00;;;4.53;;
15261;SDS011;7733;51.554;13.590;2023-04-06T07:03:24;5.43;;;4.67;;
15261;SDS011;7733;51.554;13.590;2023-04-06T07:05:51;5.07;;;4.57;;
15261;SDS011;7733;51.554;13.590;2023-04-06T07:08:20;4.33;;;4.00;;
15261;SDS011;7733;51.554;13.590;2023-04-06T07:10:48;4.80;;;4.40;;
15261;SDS011;7733;51.554;13.590;2023-04-06T07:13:17;5.07;;;4.30;;
15261;SDS011;7733;51.554;13.590;2023-04-06T07:15:47;3.80;;;3.60;;
15261;SDS011;7733;51.554;13.590;2023-04-06T07:18:14;3.73;;;3.53;;
15261;SDS011;7733;51.554;13.590;2023-04-06T07:20:40;4.00;;;3.70;;
15261;SDS011;7733;51.554;13.590;2023-04-06T07:23:06;4.13;;;3.73;;
15261;SDS011;7733;51.554;13.590;2023-04-06T07:25:32;4.20;;;3.80;;
15261;SDS011;7733;51.554;13.590;2023-04-06T07:27:58;4.23;;;3.90;;
15261;SDS011;7733;51.554;13.590;2023-04-06T07:30:24;4.07;;;3.60;;
15261;SDS011;7733;51.554;13.590;2023-04-06T07:32:53;4.10;;;3.70;;
15261;SDS011;7733;51.554;13.590;2023-04-06T07:35:24;4.83;;;4.43;;
15261;SDS011;7733;51.554;13.590;2023-04-06T07:37:51;3.57;;;3.30;;
15261;SDS011;7733;51.554;13.590;2023-04-06T07:40:18;4.17;;;3.80;;
15261;SDS011;7733;51.554;13.590;2023-04-06T07:42:44;3.97;;;3.67;;
15261;SDS011;7733;51.554;13.590;2023-04-06T07:45:11;3.97;;;3.67;;
15261;SDS011;7733;51.554;13.590;2023-04-06T07:47:37;3.83;;;3.63;;
15261;SDS011;7733;51.554;13.590;2023-04-06T07:50:03;4.63;;;4.23;;
15261;SDS011;7733;51.554;13.590;2023-04-06T07:52:30;4.37;;;3.80;;
15261;SDS011;7733;51.554;13.590;2023-04-06T07:54:59;5.13;;;3.87;;
15261;SDS011;7733;51.554;13.590;2023-04-06T07:57:25;4.50;;;3.23;;
15261;SDS011;7733;51.554;13.590;2023-04-06T07:59:51;3.70;;;3.33;;
15261;SDS011;7733;51.554;13.590;2023-04-06T08:02:16;4.47;;;3.63;;
15261;SDS011;7733;51.554;13.590;2023-04-06T08:04:43;4.00;;;3.70;;
15261;SDS011;7733;51.554;13.590;2023-04-06T08:07:09;3.90;;;3.50;;
15261;SDS011;7733;51.554;13.590;2023-04-06T08:09:35;3.33;;;2.83;;
15261;SDS011;7733;51.554;13.590;2023-04-06T08:12:00;3.60;;;3.30;;
15261;SDS011;7733;51.554;13.590;2023-04-06T08:14:26;2.40;;;2.30;;
15261;SDS011;7733;51.554;13.590;2023-04-06T08:16:52;3.00;;;2.80;;
15261;SDS011;7733;51.554;13.590;2023-04-06T08:19:18;3.47;;;2.60;;
15261;SDS011;7733;51.554;13.590;2023-04-06T08:21:47;2.83;;;2.60;;
15261;SDS011;7733;51.554;13.590;2023-04-06T08:24:13;3.90;;;2.60;;
15261;SDS011;7733;51.554;13.590;2023-04-06T08:26:40;4.80;;;2.57;;
15261;SDS011;7733;51.554;13.590;2023-04-06T08:29:06;3.53;;;2.13;;
15261;SDS011;7733;51.554;13.590;2023-04-06T08:31:34;2.90;;;2.60;;
15261;SDS011;7733;51.554;13.590;2023-04-06T08:34:01;2.60;;;2.40;;
15261;SDS011;7733;51.554;13.590;2023-04-06T08:36:30;2.90;;;2.23;;
15261;SDS011;7733;51.554;13.590;2023-04-06T08:38:56;3.27;;;2.20;;
15261;SDS011;7733;51.554;13.590;2023-04-06T08:41:22;4.13;;;3.83;;
15261;SDS011;7733;51.554;13.590;2023-04-06T08:43:49;3.40;;;3.20;;
15261;SDS011;7733;51.554;13.590;2023-04-06T08:46:26;4.20;;;1.90;;
15261;SDS011;7733;51.554;13.590;2023-04-06T08:48:55;2.07;;;1.90;;
15261;SDS011;7733;51.554;13.590;2023-04-06T08:51:27;3.27;;;2.30;;
15261;SDS011;7733;51.554;13.590;2023-04-06T08:53:55;2.20;;;2.10;;
15261;SDS011;7733;51.554;13.590;2023-04-06T08:56:23;4.67;;;4.30;;
15261;SDS011;7733;51.554;13.590;2023-04-06T08:58:50;2.77;;;2.40;;
15261;SDS011;7733;51.554;13.590;2023-04-06T09:01:23;2.80;;;2.30;;
15261;SDS011;7733;51.554;13.590;2023-04-06T09:03:55;2.70;;;2.50;;
15261;SDS011;7733;51.554;13.590;2023-04-06T09:06:25;3.00;;;2.90;;
15261;SDS011;7733;51.554;13.590;2023-04-06T09:08:55;2.80;;;2.60;;
15261;SDS011;7733;51.554;13.590;2023-04-06T09:11:23;10.37;;;9.37;;
15261;SDS011;7733;51.554;13.590;2023-04-06T09:13:55;6.23;;;5.60;;
15261;SDS011;7733;51.554;13.590;2023-04-06T09:16:22;7.07;;;6.53;;
15261;SDS011;7733;51.554;13.590;2023-04-06T09:18:50;2.83;;;2.63;;
15261;SDS011;7733;51.554;13.590;2023-04-06T09:21:16;7.37;;;6.67;;
15261;SDS011;7733;51.554;13.590;2023-04-06T09:23:44;2.40;;;2.30;;
15261;SDS011;7733;51.554;13.590;2023-04-06T09:26:11;2.30;;;2.20;;
15261;SDS011;7733;51.554;13.590;2023-04-06T09:28:51;2.90;;;2.70;;
15261;SDS011;7733;51.554;13.590;2023-04-06T09:31:22;2.20;;;2.10;;
15261;SDS011;7733;51.554;13.590;2023-04-06T09:33:51;2.10;;;2.00;;
15261;SDS011;7733;51.554;13.590;2023-04-06T09:36:18;2.03;;;1.93;;
15261;SDS011;7733;51.554;13.590;2023-04-06T09:38:58;3.90;;;2.10;;
15261;SDS011;7733;51.554;13.590;2023-04-06T09:41:28;2.70;;;2.50;;
15261;SDS011;7733;51.554;13.590;2023-04-06T09:46:33;2.53;;;2.33;;
15261;SDS011;7733;51.554;13.590;2023-04-06T09:49:07;2.60;;;2.43;;
15261;SDS011;7733;51.554;13.590;2023-04-06T09:51:39;2.57;;;2.37;;
15261;SDS011;7733;51.554;13.590;2023-04-06T09:54:07;2.93;;;2.60;;
15261;SDS011;7733;51.554;13.590;2023-04-06T09:56:50;2.50;;;2.40;;
15261;SDS011;7733;51.554;13.590;2023-04-06T10:02:32;2.43;;;2.23;;
15261;SDS011;7733;51.554;13.590;2023-04-06T10:08:11;2.37;;;2.20;;
15261;SDS011;7733;51.554;13.590;2023-04-06T10:10:39;3.10;;;2.90;;
15261;SDS011;7733;51.554;13.590;2023-04-06T10:13:05;2.63;;;2.53;;
15261;SDS011;7733;51.554;13.590;2023-04-06T10:15:32;2.53;;;2.33;;
15261;SDS011;7733;51.554;13.590;2023-04-06T10:17:59;2.40;;;2.30;;
15261;SDS011;7733;51.554;13.590;2023-04-06T10:23:05;2.67;;;2.47;;
15261;SDS011;7733;51.554;13.590;2023-04-06T10:25:40;4.17;;;2.23;;
15261;SDS011;7733;51.554;13.590;2023-04-06T10:28:22;3.17;;;2.97;;
15261;SDS011;7733;51.554;13.590;2023-04-06T10:30:49;2.33;;;2.20;;
15261;SDS011;7733;51.554;13.590;2023-04-06T10:33:26;3.23;;;2.20;;
15261;SDS011;7733;51.554;13.590;2023-04-06T10:35:53;2.30;;;2.20;;
15261;SDS011;7733;51.554;13.590;2023-04-06T10:38:20;2.10;;;1.93;;
15261;SDS011;7733;51.554;13.590;2023-04-06T10:40:47;2.70;;;2.50;;
15261;SDS011;7733;51.554;13.590;2023-04-06T10:43:22;2.70;;;2.60;;
15261;SDS011;7733;51.554;13.590;2023-04-06T10:45:55;2.20;;;2.10;;
15261;SDS011;7733;51.554;13.590;2023-04-06T10:48:24;2.57;;;2.37;;
15261;SDS011;7733;51.554;13.590;2023-04-06T10:51:00;2.43;;;2.33;;
15261;SDS011;7733;51.554;13.590;2023-04-06T10:53:27;2.60;;;2.50;;
15261;SDS011;7733;51.554;13.590;2023-04-06T10:55:56;2.83;;;2.37;;
15261;SDS011;7733;51.554;13.590;2023-04-06T10:58:26;2.30;;;2.20;;
15261;SDS011;7733;51.554;13.590;2023-04-06T11:00:52;2.40;;;2.30;;
15261;SDS011;7733;51.554;13.590;2023-04-06T11:03:22;2.40;;;2.30;;
15261;SDS011;7733;51.554;13.590;2023-04-06T11:05:49;2.20;;;2.10;;
15261;SDS011;7733;51.554;13.590;2023-04-06T11:08:25;3.00;;;2.90;;
15261;SDS011;7733;51.554;13.590;2023-04-06T11:11:11;2.43;;;2.30;;
15261;SDS011;7733;51.554;13.590;2023-04-06T11:13:56;2.20;;;2.10;;
15261;SDS011;7733;51.554;13.590;2023-04-06T11:16:28;2.20;;;2.10;;
15261;SDS011;7733;51.554;13.590;2023-04-06T11:19:01;2.30;;;2.20;;
15261;SDS011;7733;51.554;13.590;2023-04-06T11:26:54;2.10;;;2.00;;
15261;SDS011;7733;51.554;13.590;2023-04-06T11:29:26;2.40;;;2.30;;
15261;SDS011;7733;51.554;13.590;2023-04-06T11:31:58;2.47;;;2.37;;
15261;SDS011;7733;51.554;13.590;2023-04-06T11:34:28;2.20;;;2.10;;
15261;SDS011;7733;51.554;13.590;2023-04-06T11:37:01;8.67;;;4.10;;
15261;SDS011;7733;51.554;13.590;2023-04-06T11:39:31;3.07;;;2.87;;
15261;SDS011;7733;51.554;13.590;2023-04-06T11:42:05;2.43;;;2.33;;
15261;SDS011;7733;51.554;13.590;2023-04-06T11:44:32;3.73;;;3.53;;
15261;SDS011;7733;51.554;13.590;2023-04-06T11:47:03;3.10;;;2.07;;
15261;SDS011;7733;51.554;13.590;2023-04-06T11:49:31;3.53;;;3.33;;
15261;SDS011;7733;51.554;13.590;2023-04-06T11:51:59;2.20;;;2.00;;
15261;SDS011;7733;51.554;13.590;2023-04-06T11:57:05;2.37;;;2.17;;
15261;SDS011;7733;51.554;13.590;2023-04-06T11:59:33;2.20;;;2.00;;
15261;SDS011;7733;51.554;13.590;2023-04-06T12:02:03;3.70;;;2.53;;
15261;SDS011;7733;51.554;13.590;2023-04-06T12:04:30;2.77;;;2.30;;
15261;SDS011;7733;51.554;13.590;2023-04-06T12:06:56;2.47;;;2.27;;
15261;SDS011;7733;51.554;13.590;2023-04-06T12:09:23;2.60;;;2.40;;
15261;SDS011;7733;51.554;13.590;2023-04-06T12:11:49;2.20;;;2.10;;
15261;SDS011;7733;51.554;13.590;2023-04-06T12:14:15;2.67;;;2.47;;
15261;SDS011;7733;51.554;13.590;2023-04-06T12:16:41;2.30;;;2.20;;
15261;SDS011;7733;51.554;13.590;2023-04-06T12:19:07;2.40;;;2.27;;
15261;SDS011;7733;51.554;13.590;2023-04-06T12:21:34;2.30;;;2.10;;
15261;SDS011;7733;51.554;13.590;2023-04-06T12:24:02;3.60;;;3.40;;
15261;SDS011;7733;51.554;13.590;2023-04-06T12:26:29;2.03;;;1.93;;
15261;SDS011;7733;51.554;13.590;2023-04-06T12:28:56;2.40;;;2.30;;
15261;SDS011;7733;51.554;13.590;2023-04-06T12:31:29;2.87;;;2.67;;
15261;SDS011;7733;51.554;13.590;2023-04-06T12:33:55;2.40;;;2.30;;
15261;SDS011;7733;51.554;13.590;2023-04-06T12:36:21;2.47;;;2.37;;
15261;SDS011;7733;51.554;13.590;2023-04-06T12:38:47;3.03;;;2.73;;
15261;SDS011;7733;51.554;13.590;2023-04-06T12:41:15;2.60;;;2.50;;
15261;SDS011;7733;51.554;13.590;2023-04-06T12:43:40;2.77;;;2.60;;
15261;SDS011;7733;51.554;13.590;2023-04-06T12:46:08;2.77;;;2.33;;
15261;SDS011;7733;51.554;13.590;2023-04-06T12:48:34;2.60;;;2.50;;
15261;SDS011;7733;51.554;13.590;2023-04-06T12:51:04;2.80;;;2.70;;
15261;SDS011;7733;51.554;13.590;2023-04-06T12:53:31;2.87;;;2.70;;
15261;SDS011;7733;51.554;13.590;2023-04-06T12:55:58;2.63;;;2.53;;
15261;SDS011;7733;51.554;13.590;2023-04-06T12:58:25;2.67;;;2.57;;
15261;SDS011;7733;51.554;13.590;2023-04-06T13:00:52;2.70;;;2.60;;
15261;SDS011;7733;51.554;13.590;2023-04-06T13:03:18;2.50;;;2.40;;
15261;SDS011;7733;51.554;13.590;2023-04-06T13:05:45;2.40;;;2.30;;
15261;SDS011;7733;51.554;13.590;2023-04-06T13:08:18;2.50;;;2.40;;
15261;SDS011;7733;51.554;13.590;2023-04-06T13:10:48;2.63;;;2.47;;
15261;SDS011;7733;51.554;13.590;2023-04-06T13:13:23;2.83;;;2.23;;
15261;SDS011;7733;51.554;13.590;2023-04-06T13:15:52;2.53;;;2.37;;
15261;SDS011;7733;51.554;13.590;2023-04-06T13:18:20;2.60;;;2.40;;
15261;SDS011;7733;51.554;13.590;2023-04-06T13:20:48;2.70;;;2.50;;
15261;SDS011;7733;51.554;13.590;2023-04-06T13:23:14;2.57;;;2.47;;
15261;SDS011;7733;51.554;13.590;2023-04-06T13:25:40;2.97;;;2.33;;
15261;SDS011;7733;51.554;13.590;2023-04-06T13:28:05;4.87;;;4.40;;
15261;SDS011;7733;51.554;13.590;2023-04-06T13:30:32;9.30;;;8.47;;
15261;SDS011;7733;51.554;13.590;2023-04-06T13:32:58;11.27;;;10.40;;
15261;SDS011;7733;51.554;13.590;2023-04-06T13:35:24;3.10;;;3.00;;
15261;SDS011;7733;51.554;13.590;2023-04-06T13:37:49;4.47;;;4.07;;
15261;SDS011;7733;51.554;13.590;2023-04-06T13:40:17;2.30;;;2.20;;
15261;SDS011;7733;51.554;13.590;2023-04-06T13:42:43;7.83;;;7.23;;
15261;SDS011;7733;51.554;13.590;2023-04-06T13:45:11;2.10;;;2.00;;
15261;SDS011;7733;51.554;13.590;2023-04-06T13:47:37;2.70;;;2.40;;
15261;SDS011;7733;51.554;13.590;2023-04-06T13:50:03;2.60;;;2.50;;
15261;SDS011;7733;51.554;13.590;2023-04-06T13:52:29;2.97;;;2.10;;
15261;SDS011;7733;51.554;13.590;2023-04-06T13:54:55;4.23;;;2.27;;
15261;SDS011;7733;51.554;13.590;2023-04-06T13:57:21;2.17;;;2.07;;
15261;SDS011;7733;51.554;13.590;2023-04-06T13:59:47;2.10;;;2.00;;
15261;SDS011;7733;51.554;13.590;2023-04-06T14:02:14;2.20;;;2.10;;
15261;SDS011;7733;51.554;13.590;2023-04-06T14:04:40;2.17;;;1.97;;
15261;SDS011;7733;51.554;13.590;2023-04-06T14:07:06;3.10;;;1.90;;
15261;SDS011;7733;51.554;13.590;2023-04-06T14:09:32;1.90;;;1.73;;
15261;SDS011;7733;51.554;13.590;2023-04-06T14:11:58;3.63;;;3.40;;
15261;SDS011;7733;51.554;13.590;2023-04-06T14:14:24;3.03;;;2.83;;
15261;SDS011;7733;51.554;13.590;2023-04-06T14:16:51;3.00;;;2.90;;
15261;SDS011;7733;51.554;13.590;2023-04-06T14:19:17;2.43;;;2.27;;
15261;SDS011;7733;51.554;13.590;2023-04-06T14:21:44;3.63;;;3.40;;
15261;SDS011;7733;51.554;13.590;2023-04-06T14:24:10;2.10;;;2.00;;
15261;SDS011;7733;51.554;13.590;2023-04-06T14:26:37;2.73;;;2.63;;
15261;SDS011;7733;51.554;13.590;2023-04-06T14:29:06;2.50;;;2.40;;
15261;SDS011;7733;51.554;13.590;2023-04-06T14:31:33;2.67;;;2.57;;
15261;SDS011;7733;51.554;13.590;2023-04-06T14:34:00;2.30;;;2.20;;
15261;SDS011;7733;51.554;13.590;2023-04-06T14:36:28;2.20;;;2.07;;
15261;SDS011;7733;51.554;13.590;2023-04-06T14:39:01;3.30;;;1.80;;
15261;SDS011;7733;51.554;13.590;2023-04-06T14:41:30;2.40;;;2.30;;
15261;SDS011;7733;51.554;13.590;2023-04-06T14:43:56;8.50;;;7.80;;
15261;SDS011;7733;51.554;13.590;2023-04-06T14:46:22;9.03;;;8.33;;
15261;SDS011;7733;51.554;13.590;2023-04-06T14:48:48;6.30;;;5.90;;
15261;SDS011;7733;51.554;13.590;2023-04-06T14:51:14;3.40;;;3.10;;
15261;SDS011;7733;51.554;13.590;2023-04-06T14:53:39;6.90;;;6.50;;
15261;SDS011;7733;51.554;13.590;2023-04-06T14:56:05;3.77;;;3.50;;
15261;SDS011;7733;51.554;13.590;2023-04-06T14:58:31;2.27;;;2.10;;
15261;SDS011;7733;51.554;13.590;2023-04-06T15:00:58;2.27;;;2.07;;
15261;SDS011;7733;51.554;13.590;2023-04-06T15:03:25;2.10;;;2.00;;
15261;SDS011;7733;51.554;13.590;2023-04-06T15:05:53;2.00;;;1.90;;